createdAt,value
2019-04-16T00:00:21.479Z,39.5
2019-04-16T00:01:33.835Z,39.4
2019-04-16T00:02:46.201Z,39.1
2019-04-16T00:03:58.546Z,39.5
2019-04-16T00:07:35.629Z,40
2019-04-16T00:08:47.973Z,39.1
2019-04-16T00:10:00.329Z,39.6
2019-04-16T00:12:25.055Z,39.8
2019-04-16T00:13:37.411Z,39.6
2019-04-16T00:14:49.007Z,39.7
2019-04-16T00:16:02.176Z,39.7
2019-04-16T00:17:14.462Z,39.3
2019-04-16T00:18:26.817Z,39.6
2019-04-16T00:19:39.176Z,39.5
2019-04-16T00:22:03.893Z,39.6
2019-04-16T00:23:16.248Z,40
2019-04-16T00:24:28.596Z,39.1
2019-04-16T00:25:40.954Z,39.7
2019-04-16T00:26:53.325Z,39.6
2019-04-16T00:28:05.669Z,39.3
2019-04-16T00:29:18.021Z,38.9
2019-04-16T00:30:30.381Z,38.9
2019-04-16T00:31:42.734Z,39.4
2019-04-16T00:32:55.085Z,39.6
2019-04-16T00:34:07.451Z,39
2019-04-16T00:36:32.241Z,39.2
2019-04-16T00:37:44.518Z,39.4
2019-04-16T00:38:56.879Z,39.5
2019-04-16T00:40:09.230Z,39.2
2019-04-16T00:41:21.582Z,39.2
2019-04-16T00:42:33.939Z,39.4
2019-04-16T00:43:46.294Z,39.4
2019-04-16T00:46:11.000Z,37.8
2019-04-16T00:48:35.715Z,37.1
2019-04-16T00:51:00.430Z,38.3
2019-04-16T00:52:12.787Z,37.7
2019-04-16T00:55:49.856Z,37.7
2019-04-16T00:57:02.212Z,37.7
2019-04-16T00:58:14.571Z,39.3
2019-04-16T00:59:27.028Z,38.4
2019-04-16T01:00:39.278Z,39.4
2019-04-16T01:01:51.643Z,39.4
2019-04-16T01:03:03.987Z,38.9
2019-04-16T01:04:16.337Z,38.9
2019-04-16T01:05:28.703Z,38.6
2019-04-16T01:06:41.057Z,38.7
2019-04-16T01:07:53.408Z,38.5
2019-04-16T01:10:18.115Z,39.1
2019-04-16T01:11:30.046Z,38.9
2019-04-16T01:12:42.827Z,39.1
2019-04-16T01:16:19.880Z,38.4
2019-04-16T01:17:32.233Z,38.9
2019-04-16T01:19:56.944Z,38.9
2019-04-16T01:22:21.660Z,38.5
2019-04-16T01:24:46.036Z,38.9
2019-04-16T01:25:58.713Z,38.7
2019-04-16T01:27:11.069Z,38.8
2019-04-16T01:29:35.804Z,39.1
2019-04-16T01:30:48.135Z,38.9
2019-04-16T01:32:00.491Z,38.9
2019-04-16T01:34:25.019Z,39
2019-04-16T01:35:37.557Z,38.7
2019-04-16T01:36:49.946Z,38.9
2019-04-16T01:39:14.630Z,38.9
2019-04-16T01:40:26.974Z,39.1
2019-04-16T01:44:04.040Z,39.2
2019-04-16T01:45:16.377Z,39.4
2019-04-16T01:46:28.732Z,39.3
2019-04-16T01:48:53.471Z,39.3
2019-04-16T01:50:05.816Z,39.6
2019-04-16T01:51:18.152Z,39.6
2019-04-16T01:53:42.860Z,39.5
2019-04-16T01:54:55.214Z,39.1
2019-04-16T01:56:07.576Z,39.3
2019-04-16T01:57:19.920Z,38.1
2019-04-16T01:58:32.281Z,37
2019-04-16T01:59:44.629Z,37.2
2019-04-16T02:00:57.022Z,38.2
2019-04-16T02:03:21.688Z,38
2019-04-16T02:04:34.000Z,37.3
2019-04-16T02:08:11.114Z,38.6
2019-04-16T02:09:23.463Z,38.9
2019-04-16T02:10:35.820Z,38.6
2019-04-16T02:11:48.172Z,39.4
2019-04-16T02:13:00.529Z,38.9
2019-04-16T02:14:12.880Z,39.1
2019-04-16T02:15:25.024Z,38.9
2019-04-16T02:17:49.939Z,38.9
2019-04-16T02:19:02.028Z,38.6
2019-04-16T02:20:14.643Z,38.4
2019-04-16T02:22:39.356Z,38.5
2019-04-16T02:23:51.708Z,38.8
2019-04-16T02:25:04.064Z,38.3
2019-04-16T02:26:16.437Z,38.2
2019-04-16T02:27:28.778Z,38.8
2019-04-16T02:28:41.122Z,38.4
2019-04-16T02:32:18.208Z,38.7
2019-04-16T02:33:30.563Z,38.3
2019-04-16T02:34:42.905Z,38.2
2019-04-16T02:38:19.959Z,38.6
2019-04-16T02:39:32.320Z,38.5
2019-04-16T02:43:09.376Z,38.8
2019-04-16T02:44:21.742Z,38.6
2019-04-16T02:46:46.434Z,39
2019-04-16T02:47:58.816Z,39.2
2019-04-16T02:49:11.140Z,39.2
2019-04-16T02:51:35.857Z,38.7
2019-04-16T02:52:48.204Z,39.1
2019-04-16T02:54:00.557Z,39.1
2019-04-16T02:56:25.270Z,38.9
2019-04-16T02:57:37.672Z,39.1
2019-04-16T02:58:49.978Z,38.8
2019-04-16T03:01:14.687Z,38.6
2019-04-16T03:02:27.067Z,38.9
2019-04-16T03:03:39.039Z,39.1
2019-04-16T03:06:04.123Z,38.9
2019-04-16T03:07:16.464Z,38.6
2019-04-16T03:08:28.832Z,38.7
2019-04-16T03:10:53.526Z,37.1
2019-04-16T03:12:05.871Z,36.6
2019-04-16T03:13:18.234Z,36.4
2019-04-16T03:15:42.934Z,36.9
2019-04-16T03:16:55.294Z,37.3
2019-04-16T03:20:32.379Z,39.1
2019-04-16T03:21:44.703Z,38.8
2019-04-16T03:22:57.060Z,38
2019-04-16T03:24:09.419Z,38.3
2019-04-16T03:25:21.817Z,38.6
2019-04-16T03:26:34.131Z,38.5
2019-04-16T03:27:46.509Z,38.7
2019-04-16T03:28:58.082Z,39.4
2019-04-16T03:30:11.183Z,38.3
2019-04-16T03:31:23.545Z,38.6
2019-04-16T03:32:35.893Z,37.9
2019-04-16T03:35:00.609Z,37.9
2019-04-16T03:36:12.957Z,37.9
2019-04-16T03:37:25.315Z,38.3
2019-04-16T03:39:50.014Z,38.5
2019-04-16T03:41:02.370Z,38
2019-04-16T03:42:14.729Z,38.1
2019-04-16T03:44:39.431Z,38.6
2019-04-16T03:45:51.791Z,38.3
2019-04-16T03:47:04.145Z,38.4
2019-04-16T03:49:28.851Z,38.2
2019-04-16T03:50:41.020Z,38.4
2019-04-16T03:51:53.560Z,38.3
2019-04-16T03:54:18.266Z,38.2
2019-04-16T03:55:30.621Z,38.6
2019-04-16T03:56:42.970Z,38.6
2019-04-16T03:59:07.686Z,38.5
2019-04-16T04:00:20.035Z,38.8
2019-04-16T04:01:32.390Z,38.3
2019-04-16T04:02:44.752Z,38.4
2019-04-16T04:03:57.103Z,38.9
2019-04-16T04:05:09.468Z,38.4
2019-04-16T04:06:21.813Z,38.6
2019-04-16T04:07:34.169Z,38.8
2019-04-16T04:08:46.517Z,38.8
2019-04-16T04:09:58.882Z,38.4
2019-04-16T04:11:11.226Z,38.4
2019-04-16T04:12:23.580Z,38.6
2019-04-16T04:13:35.936Z,38.5
2019-04-16T04:14:48.292Z,38.1
2019-04-16T04:16:00.649Z,38.6
2019-04-16T04:18:25.346Z,38.6
2019-04-16T04:19:37.706Z,38.4
2019-04-16T04:20:50.061Z,38.6
2019-04-16T04:23:14.771Z,36.9
2019-04-16T04:25:39.484Z,36.2
2019-04-16T04:26:51.844Z,37.5
2019-04-16T04:28:04.194Z,37.2
2019-04-16T04:29:16.547Z,37.1
2019-04-16T04:30:28.896Z,37
2019-04-16T04:31:41.257Z,36.7
2019-04-16T04:32:53.602Z,37.7
2019-04-16T04:34:05.009Z,37.8
2019-04-16T04:35:18.324Z,38.1
2019-04-16T04:37:43.015Z,38.5
2019-04-16T04:38:55.371Z,38.4
2019-04-16T04:40:07.729Z,37.8
2019-04-16T04:41:20.082Z,37.4
2019-04-16T04:42:32.438Z,37.8
2019-04-16T04:43:44.788Z,38.1
2019-04-16T04:44:57.143Z,38.2
2019-04-16T04:47:21.008Z,38.4
2019-04-16T04:48:34.205Z,38.4
2019-04-16T04:49:46.566Z,38.2
2019-04-16T04:50:58.914Z,38.2
2019-04-16T04:52:11.266Z,38
2019-04-16T04:53:23.621Z,38
2019-04-16T04:54:35.970Z,37.7
2019-04-16T04:57:00.683Z,37.8
2019-04-16T04:58:13.040Z,37.9
2019-04-16T04:59:25.393Z,37.8
2019-04-16T05:01:50.101Z,37.6
2019-04-16T05:03:02.455Z,37.8
2019-04-16T05:04:14.814Z,37.9
2019-04-16T05:05:27.163Z,38.3
2019-04-16T05:06:39.530Z,38.3
2019-04-16T05:07:51.087Z,38.2
2019-04-16T05:09:04.220Z,38.7
2019-04-16T05:11:28.933Z,38
2019-04-16T05:12:41.295Z,38.3
2019-04-16T05:13:53.642Z,38.3
2019-04-16T05:16:18.350Z,38.2
2019-04-16T05:17:30.712Z,38.2
2019-04-16T05:21:07.768Z,38.3
2019-04-16T05:22:20.013Z,38.5
2019-04-16T05:23:32.472Z,38.1
2019-04-16T05:24:44.083Z,38.5
2019-04-16T05:25:57.019Z,38.3
2019-04-16T05:27:09.549Z,38.2
2019-04-16T05:28:21.893Z,38.2
2019-04-16T05:30:46.600Z,38.4
2019-04-16T05:31:58.957Z,38.4
2019-04-16T05:33:11.312Z,38.4
2019-04-16T05:34:23.669Z,38.1
2019-04-16T05:35:36.013Z,37.2
2019-04-16T05:36:48.371Z,36.3
2019-04-16T05:38:00.724Z,36
2019-04-16T05:39:13.079Z,36.6
2019-04-16T05:41:37.789Z,37
2019-04-16T05:45:14.846Z,36.3
2019-04-16T05:46:27.201Z,37.1
2019-04-16T05:47:39.569Z,37.4
2019-04-16T05:50:04.028Z,37.4
2019-04-16T05:51:16.621Z,38.2
2019-04-16T05:52:29.028Z,37.5
2019-04-16T05:54:53.684Z,37.5
2019-04-16T05:56:06.034Z,37.8
2019-04-16T05:57:18.390Z,37.8
2019-04-16T05:59:43.010Z,37.1
2019-04-16T06:00:55.452Z,37.7
2019-04-16T06:02:07.804Z,37.3
2019-04-16T06:04:32.518Z,37.7
2019-04-16T06:05:44.878Z,38.2
2019-04-16T06:09:21.933Z,38.6
2019-04-16T06:10:34.285Z,38
2019-04-16T06:11:46.641Z,37.6
2019-04-16T06:14:11.347Z,37.6
2019-04-16T06:15:23.709Z,37.3
2019-04-16T06:16:36.064Z,37.9
2019-04-16T06:17:48.418Z,37.7
2019-04-16T06:19:00.766Z,38
2019-04-16T06:20:13.130Z,38.2
2019-04-16T06:21:25.472Z,38.3
2019-04-16T06:23:50.193Z,38
2019-04-16T06:25:02.676Z,37.9
2019-04-16T06:26:14.887Z,37.2
2019-04-16T06:27:27.254Z,37.6
2019-04-16T06:28:39.603Z,37.5
2019-04-16T06:29:51.953Z,38
2019-04-16T06:33:29.002Z,37
2019-04-16T06:34:41.373Z,36.9
2019-04-16T06:35:53.727Z,37.4
2019-04-16T06:38:18.433Z,38
2019-04-16T06:39:30.791Z,36.9
2019-04-16T06:40:43.143Z,37.4
2019-04-16T06:43:07.852Z,37.8
2019-04-16T06:44:20.227Z,37.8
2019-04-16T06:45:32.587Z,37.8
2019-04-16T06:47:57.266Z,37.6
2019-04-16T06:49:09.627Z,37.9
2019-04-16T06:50:21.973Z,37
2019-04-16T06:51:34.331Z,36.7
2019-04-16T06:52:46.682Z,36.6
2019-04-16T06:53:59.042Z,37
2019-04-16T06:57:36.142Z,37
2019-04-16T06:58:48.503Z,36.4
2019-04-16T07:02:25.051Z,37.4
2019-04-16T07:03:37.869Z,36.5
2019-04-16T07:04:50.231Z,37
2019-04-16T07:07:14.929Z,37.2
2019-04-16T07:08:27.031Z,37.2
2019-04-16T07:09:39.644Z,36.9
2019-04-16T07:12:04.035Z,37.5
2019-04-16T07:13:16.702Z,37.4
2019-04-16T07:14:29.059Z,37.8
2019-04-16T07:15:41.413Z,37.7
2019-04-16T07:16:53.768Z,37.3
2019-04-16T07:18:06.119Z,38.2
2019-04-16T07:19:18.470Z,38.2
2019-04-16T07:21:43.185Z,36.8
2019-04-16T07:22:55.541Z,36.6
2019-04-16T07:24:07.888Z,36.8
2019-04-16T07:25:20.245Z,37.5
2019-04-16T07:26:32.601Z,38.1
2019-04-16T07:27:44.951Z,37.9
2019-04-16T07:28:57.304Z,38.2
2019-04-16T07:31:22.038Z,38
2019-04-16T07:32:34.369Z,37.7
2019-04-16T07:33:46.072Z,37.8
2019-04-16T07:36:11.431Z,37.8
2019-04-16T07:37:23.784Z,37.6
2019-04-16T07:38:36.014Z,38.3
2019-04-16T07:39:48.593Z,37.2
2019-04-16T07:41:00.873Z,37.3
2019-04-16T07:42:13.202Z,37.6
2019-04-16T07:43:25.558Z,37.7
2019-04-16T07:45:50.002Z,37.1
2019-04-16T07:47:02.712Z,37.4
2019-04-16T07:48:14.971Z,37
2019-04-16T07:50:39.678Z,37.1
2019-04-16T07:51:52.037Z,37
2019-04-16T07:53:04.388Z,38.3
2019-04-16T07:54:16.748Z,37.7
2019-04-16T07:55:29.098Z,37.4
2019-04-16T07:56:41.451Z,37.7
2019-04-16T07:57:53.808Z,37.3
2019-04-16T08:00:18.515Z,37.3
2019-04-16T08:01:30.863Z,37.3
2019-04-16T08:02:43.025Z,36.6
2019-04-16T08:05:07.095Z,36
2019-04-16T08:06:20.284Z,35.8
2019-04-16T08:09:57.352Z,35.7
2019-04-16T08:11:09.704Z,35.8
2019-04-16T08:12:22.058Z,35.7
2019-04-16T08:15:59.126Z,36.4
2019-04-16T08:17:11.479Z,36.6
2019-04-16T08:18:23.865Z,36
2019-04-16T08:20:48.544Z,37
2019-04-16T08:22:00.889Z,37
2019-04-16T08:24:25.605Z,36.6
2019-04-16T08:25:37.955Z,36.9
2019-04-16T08:26:50.315Z,37
2019-04-16T08:29:15.022Z,37.2
2019-04-16T08:30:27.388Z,36.7
2019-04-16T08:31:39.081Z,35.9
2019-04-16T08:34:04.436Z,35.4
2019-04-16T08:35:16.789Z,35.4
2019-04-16T08:36:29.142Z,35.3
2019-04-16T08:38:53.880Z,35.7
2019-04-16T08:40:06.577Z,35.6
2019-04-16T08:41:18.565Z,35.4
2019-04-16T08:43:43.263Z,35.8
2019-04-16T08:44:55.625Z,35.5
2019-04-16T08:46:07.979Z,36.2
2019-04-16T08:48:32.690Z,35.8
2019-04-16T08:49:45.042Z,35.2
2019-04-16T08:50:57.391Z,35.4
2019-04-16T08:53:22.105Z,35.4
2019-04-16T08:54:34.625Z,35.1
2019-04-16T08:56:59.017Z,35.3
2019-04-16T08:58:11.535Z,35.2
2019-04-16T08:59:23.873Z,35.1
2019-04-16T09:00:36.027Z,35.7
2019-04-16T09:01:48.582Z,35.6
2019-04-16T09:03:00.937Z,35.5
2019-04-16T09:04:13.029Z,36
2019-04-16T09:05:25.638Z,35.7
2019-04-16T09:07:50.483Z,36.4
2019-04-16T09:09:02.712Z,36.4
2019-04-16T09:10:15.076Z,35.9
2019-04-16T09:12:39.772Z,35.1
2019-04-16T09:13:52.012Z,34.6
2019-04-16T09:15:04.004Z,34.6
2019-04-16T09:17:29.194Z,34.4
2019-04-16T09:18:41.534Z,34.5
2019-04-16T09:19:54.042Z,34.6
2019-04-16T09:22:18.596Z,34.6
2019-04-16T09:23:30.957Z,34.6
2019-04-16T09:24:43.311Z,34.5
2019-04-16T09:27:08.002Z,34.8
2019-04-16T09:28:20.381Z,34.8
2019-04-16T09:29:32.728Z,34.6
2019-04-16T09:30:45.082Z,34.8
2019-04-16T09:31:57.458Z,34.9
2019-04-16T09:33:09.804Z,34.5
2019-04-16T09:34:22.146Z,34.4
2019-04-16T09:36:46.084Z,34.5
2019-04-16T09:37:59.200Z,34.3
2019-04-16T09:39:11.558Z,34
2019-04-16T09:41:36.273Z,33.8
2019-04-16T09:42:48.658Z,34
2019-04-16T09:46:25.689Z,34
2019-04-16T09:47:38.051Z,34
2019-04-16T09:48:50.389Z,34.1
2019-04-16T09:51:15.102Z,33.7
2019-04-16T09:53:39.844Z,33.5
2019-04-16T09:54:52.164Z,32.4
2019-04-16T09:56:04.532Z,32.6
2019-04-16T09:57:16.869Z,32.3
2019-04-16T09:58:29.022Z,32
2019-04-16T10:00:53.934Z,32.5
2019-04-16T10:02:06.310Z,32.8
2019-04-16T10:03:18.648Z,32.8
2019-04-16T10:05:43.348Z,32.7
2019-04-16T10:06:55.707Z,32.7
2019-04-16T10:08:08.058Z,32.7
2019-04-16T10:10:32.007Z,32.7
2019-04-16T10:11:45.119Z,32.8
2019-04-16T10:12:57.479Z,32.9
2019-04-16T10:15:22.183Z,32.8
2019-04-16T10:16:34.535Z,32.8
2019-04-16T10:17:46.089Z,32.7
2019-04-16T10:18:59.249Z,32.8
2019-04-16T10:20:11.597Z,32.8
2019-04-16T10:21:23.955Z,32.8
2019-04-16T10:22:36.320Z,32.9
2019-04-16T10:23:48.066Z,32.9
2019-04-16T10:25:01.012Z,32.9
2019-04-16T10:26:13.368Z,32.7
2019-04-16T10:27:25.728Z,32.7
2019-04-16T10:28:38.086Z,32.7
2019-04-16T10:29:50.435Z,32.7
2019-04-16T10:31:02.792Z,32.8
2019-04-16T10:32:15.148Z,32.8
2019-04-16T10:34:39.860Z,32.9
2019-04-16T10:35:52.201Z,32.9
2019-04-16T10:37:04.565Z,32.9
2019-04-16T10:38:16.933Z,32.9
2019-04-16T10:39:29.292Z,32.9
2019-04-16T10:40:41.632Z,32.1
2019-04-16T10:41:53.986Z,32.3
2019-04-16T10:44:18.070Z,32.3
2019-04-16T10:45:31.054Z,32.4
2019-04-16T10:46:43.040Z,32.6
2019-04-16T10:49:08.118Z,32.7
2019-04-16T10:50:20.500Z,32.7
2019-04-16T10:51:32.828Z,32.7
2019-04-16T10:53:57.543Z,32.5
2019-04-16T10:55:09.902Z,32.7
2019-04-16T10:57:34.624Z,33
2019-04-16T10:58:46.968Z,33
2019-04-16T10:59:59.338Z,33
2019-04-16T11:01:11.679Z,33.2
2019-04-16T11:03:36.400Z,32.8
2019-04-16T11:04:48.749Z,33.1
2019-04-16T11:06:01.100Z,32.9
2019-04-16T11:09:38.175Z,31.6
2019-04-16T11:10:50.524Z,31.6
2019-04-16T11:12:02.879Z,32.2
2019-04-16T11:13:15.255Z,31.4
2019-04-16T11:14:27.602Z,31.4
2019-04-16T11:15:39.947Z,32
2019-04-16T11:18:04.662Z,31.4
2019-04-16T11:19:17.003Z,31.6
2019-04-16T11:20:29.003Z,31.8
2019-04-16T11:21:41.733Z,32.2
2019-04-16T11:22:54.096Z,32.2
2019-04-16T11:24:06.468Z,32.1
2019-04-16T11:25:18.798Z,32.2
2019-04-16T11:27:43.051Z,32.8
2019-04-16T11:28:55.864Z,32.6
2019-04-16T11:30:08.224Z,32
2019-04-16T11:32:32.009Z,32.6
2019-04-16T11:33:45.301Z,33
2019-04-16T11:34:57.660Z,32.9
2019-04-16T11:37:22.356Z,31.4
2019-04-16T11:38:34.073Z,31.6
2019-04-16T11:40:59.044Z,31.9
2019-04-16T11:42:11.786Z,32.2
2019-04-16T11:43:24.135Z,32.3
2019-04-16T11:45:49.011Z,31.8
2019-04-16T11:47:01.213Z,30.8
2019-04-16T11:48:13.584Z,31.2
2019-04-16T11:49:25.920Z,30.9
2019-04-16T11:50:38.275Z,30.5
2019-04-16T11:51:50.689Z,30.6
2019-04-16T11:53:02.991Z,30.5
2019-04-16T11:54:15.345Z,31.1
2019-04-16T11:56:40.052Z,31.8
2019-04-16T11:57:52.448Z,32.1
2019-04-16T12:00:17.129Z,30.3
2019-04-16T12:01:29.484Z,30.8
2019-04-16T12:02:41.833Z,30.4
2019-04-16T12:03:54.018Z,29.6
2019-04-16T12:06:18.899Z,31.3
2019-04-16T12:08:43.609Z,30.9
2019-04-16T12:09:55.972Z,30.7
2019-04-16T12:11:08.032Z,31.3
2019-04-16T12:12:20.681Z,32
2019-04-16T12:13:33.041Z,32.3
2019-04-16T12:14:45.040Z,31.2
2019-04-16T12:15:57.750Z,30.4
2019-04-16T12:17:10.112Z,30.3
2019-04-16T12:20:47.179Z,32.1
2019-04-16T12:21:59.538Z,31.7
2019-04-16T12:23:11.895Z,31.2
2019-04-16T12:24:24.000Z,29.9
2019-04-16T12:25:36.621Z,29.8
2019-04-16T12:26:48.958Z,30.8
2019-04-16T12:28:01.307Z,29.7
2019-04-16T12:30:26.025Z,31
2019-04-16T12:31:38.400Z,30.9
2019-04-16T12:32:50.739Z,28.8
2019-04-16T12:35:15.044Z,30.5
2019-04-16T12:36:27.804Z,30.5
2019-04-16T12:37:40.160Z,30.8
2019-04-16T12:38:52.000Z,30.8
2019-04-16T12:40:04.875Z,29.6
2019-04-16T12:41:17.228Z,29.1
2019-04-16T12:42:29.584Z,28.6
2019-04-16T12:43:41.975Z,28.8
2019-04-16T12:44:54.318Z,28.3
2019-04-16T12:46:06.655Z,28.3
2019-04-16T12:47:19.009Z,28.5
2019-04-16T12:49:43.071Z,28.6
2019-04-16T12:50:56.094Z,28.5
2019-04-16T12:52:08.432Z,28.6
2019-04-16T12:54:33.142Z,28.9
2019-04-16T12:55:45.545Z,28.9
2019-04-16T12:59:22.569Z,28.2
2019-04-16T13:00:34.937Z,28.2
2019-04-16T13:01:47.271Z,28.3
2019-04-16T13:04:11.988Z,28.2
2019-04-16T13:05:24.343Z,28.2
2019-04-16T13:10:13.796Z,26.8
2019-04-16T13:11:26.120Z,27
2019-04-16T13:12:38.474Z,27.1
2019-04-16T13:13:50.851Z,27.2
2019-04-16T13:15:03.019Z,27.2
2019-04-16T13:16:15.551Z,27.4
2019-04-16T13:17:27.901Z,27
2019-04-16T13:18:40.278Z,27.2
2019-04-16T13:23:29.685Z,27.6
2019-04-16T13:24:42.034Z,27.7
2019-04-16T13:25:54.393Z,27.8
2019-04-16T13:28:19.127Z,27.5
2019-04-16T13:29:31.458Z,27.2
2019-04-16T13:30:43.818Z,27.3
2019-04-16T13:33:08.539Z,26.8
2019-04-16T13:34:20.893Z,27
2019-04-16T13:35:33.258Z,27.7
2019-04-16T13:37:57.959Z,27.7
2019-04-16T13:39:10.304Z,26.8
2019-04-16T13:40:22.676Z,27.4
2019-04-16T13:42:47.378Z,27.4
2019-04-16T13:43:59.736Z,26.6
2019-04-16T13:47:36.798Z,26.9
2019-04-16T13:48:49.161Z,27.1
2019-04-16T13:50:01.514Z,26.7
2019-04-16T13:52:26.226Z,26.8
2019-04-16T13:53:38.578Z,26.9
2019-04-16T13:54:50.941Z,26.4
2019-04-16T13:56:03.305Z,26.4
2019-04-16T13:57:15.645Z,26.6
2019-04-16T13:58:28.001Z,26.4
2019-04-16T13:59:40.385Z,27.3
2019-04-16T14:02:05.081Z,26.8
2019-04-16T14:04:29.785Z,26.9
2019-04-16T14:06:54.505Z,26.6
2019-04-16T14:08:06.857Z,26.9
2019-04-16T14:11:43.092Z,26.9
2019-04-16T14:12:56.272Z,26.2
2019-04-16T14:14:08.626Z,27
2019-04-16T14:16:33.348Z,27.5
2019-04-16T14:17:45.702Z,27
2019-04-16T14:18:58.005Z,26.7
2019-04-16T14:21:22.774Z,26.7
2019-04-16T14:22:35.124Z,27
2019-04-16T14:23:47.473Z,26.7
2019-04-16T14:26:12.193Z,27.5
2019-04-16T14:27:24.543Z,26.4
2019-04-16T14:28:36.902Z,26.5
2019-04-16T14:31:01.612Z,26.5
2019-04-16T14:32:14.062Z,26.5
2019-04-16T14:34:38.687Z,26.2
2019-04-16T14:35:51.041Z,26.8
2019-04-16T14:37:03.391Z,26.8
2019-04-16T14:38:15.075Z,26.7
2019-04-16T14:39:28.108Z,27.3
2019-04-16T14:40:40.485Z,26.9
2019-04-16T14:41:52.821Z,26.6
2019-04-16T14:43:05.175Z,27.3
2019-04-16T14:45:29.900Z,26.9
2019-04-16T14:46:42.244Z,27.3
2019-04-16T14:47:54.594Z,26.8
2019-04-16T14:50:19.302Z,26.9
2019-04-16T14:51:31.660Z,26.6
2019-04-16T14:52:44.014Z,27.3
2019-04-16T14:53:56.385Z,26.8
2019-04-16T14:55:08.738Z,26.6
2019-04-16T14:56:21.089Z,26.7
2019-04-16T14:57:33.438Z,27.4
2019-04-16T14:59:58.154Z,27.3
2019-04-16T15:01:10.514Z,27.4
2019-04-16T15:02:22.883Z,27.4
2019-04-16T15:04:47.588Z,27.9
2019-04-16T15:05:59.929Z,28.1
2019-04-16T15:07:12.289Z,28.1
2019-04-16T15:09:36.998Z,27.9
2019-04-16T15:10:49.366Z,27.8
2019-04-16T15:12:01.716Z,27.8
2019-04-16T15:14:26.428Z,27.8
2019-04-16T15:16:51.141Z,27.9
2019-04-16T15:18:03.500Z,28.4
2019-04-16T15:19:15.851Z,28.3
2019-04-16T15:20:28.021Z,28.6
2019-04-16T15:21:40.600Z,28.6
2019-04-16T15:24:05.293Z,28.4
2019-04-16T15:25:17.636Z,29.1
2019-04-16T15:26:30.001Z,28.1
2019-04-16T15:28:54.702Z,27.8
2019-04-16T15:30:07.054Z,28.3
2019-04-16T15:31:19.052Z,28.4
2019-04-16T15:33:44.119Z,28.1
2019-04-16T15:34:56.004Z,27.9
2019-04-16T15:36:08.836Z,28.6
2019-04-16T15:37:21.199Z,29.1
2019-04-16T15:38:33.580Z,29.1
2019-04-16T15:39:45.909Z,29.1
2019-04-16T15:40:58.262Z,30.6
2019-04-16T15:43:22.974Z,28.6
2019-04-16T15:44:35.033Z,28.6
2019-04-16T15:48:12.393Z,28.4
2019-04-16T15:49:24.755Z,27.9
2019-04-16T15:50:37.113Z,27.9
2019-04-16T15:51:49.473Z,27.8
2019-04-16T15:53:01.817Z,27.8
2019-04-16T15:54:14.174Z,27.8
2019-04-16T15:55:26.530Z,27.8
2019-04-16T15:57:51.252Z,27.7
2019-04-16T15:59:03.601Z,28.3
2019-04-16T16:00:15.095Z,27.9
2019-04-16T16:02:41.195Z,28.8
2019-04-16T16:03:53.002Z,28.7
2019-04-16T16:05:05.390Z,29
2019-04-16T16:07:30.089Z,28.4
2019-04-16T16:08:42.044Z,29.5
2019-04-16T16:12:19.005Z,28.8
2019-04-16T16:13:31.875Z,29.1
2019-04-16T16:14:44.245Z,29.2
2019-04-16T16:15:56.647Z,29.3
2019-04-16T16:17:08.944Z,28.8
2019-04-16T16:18:21.290Z,29.7
2019-04-16T16:19:33.679Z,30
2019-04-16T16:21:58.366Z,29.8
2019-04-16T16:23:10.884Z,29.1
2019-04-16T16:24:23.084Z,30.2
2019-04-16T16:26:47.783Z,29.5
2019-04-16T16:28:00.139Z,29.8
2019-04-16T16:29:12.494Z,29.3
2019-04-16T16:31:37.207Z,30.1
2019-04-16T16:36:26.655Z,30.1
2019-04-16T16:38:51.343Z,30.2
2019-04-16T16:40:03.707Z,30.7
2019-04-16T16:41:16.061Z,30.4
2019-04-16T16:42:28.421Z,29.9
2019-04-16T16:43:40.777Z,30.2
2019-04-16T16:44:53.129Z,30.4
2019-04-16T16:46:05.482Z,31.3
2019-04-16T16:47:17.836Z,31.3
2019-04-16T16:48:30.189Z,30.7
2019-04-16T16:49:42.556Z,31.4
2019-04-16T16:52:07.025Z,31.9
2019-04-16T16:53:19.615Z,31
2019-04-16T16:54:31.972Z,30.3
2019-04-16T16:55:44.335Z,29
2019-04-16T16:56:56.703Z,29.1
2019-04-16T17:00:33.794Z,30.6
2019-04-16T17:01:46.116Z,28.9
2019-04-16T17:02:58.464Z,28.6
2019-04-16T17:04:10.824Z,29.4
2019-04-16T17:05:23.194Z,29.4
2019-04-16T17:06:35.560Z,29.3
2019-04-16T17:07:47.892Z,29.6
2019-04-16T17:10:12.608Z,30.2
2019-04-16T17:11:24.959Z,29.7
2019-04-16T17:12:37.031Z,30.6
2019-04-16T17:13:49.673Z,29.5
2019-04-16T17:16:14.381Z,29.2
2019-04-16T17:17:26.742Z,29.7
2019-04-16T17:18:39.102Z,30
2019-04-16T17:19:51.047Z,30.4
2019-04-16T17:21:03.810Z,31.2
2019-04-16T17:22:16.166Z,30.2
2019-04-16T17:23:28.516Z,30.8
2019-04-16T17:24:40.874Z,30.7
2019-04-16T17:25:53.232Z,30.8
2019-04-16T17:27:05.590Z,30.7
2019-04-16T17:29:30.030Z,31.7
2019-04-16T17:30:42.671Z,31.4
2019-04-16T17:31:55.013Z,31.6
2019-04-16T17:33:07.366Z,31.9
2019-04-16T17:34:19.729Z,32.2
2019-04-16T17:35:32.088Z,32
2019-04-16T17:36:44.451Z,31.2
2019-04-16T17:37:56.794Z,31.2
2019-04-16T17:39:09.155Z,31.4
2019-04-16T17:40:21.504Z,31.3
2019-04-16T17:41:33.884Z,31.6
2019-04-16T17:42:46.218Z,31.6
2019-04-16T17:43:58.570Z,31.5
2019-04-16T17:45:10.092Z,31.5
2019-04-16T17:48:47.999Z,31.5
2019-04-16T17:50:00.355Z,31
2019-04-16T17:51:12.710Z,31.4
2019-04-16T17:53:37.436Z,31.5
2019-04-16T17:54:49.771Z,32
2019-04-16T17:56:02.216Z,32.3
2019-04-16T17:58:26.845Z,31.5
2019-04-16T17:59:39.197Z,30.9
2019-04-16T18:00:51.572Z,31.3
2019-04-16T18:03:16.027Z,30.1
2019-04-16T18:04:28.617Z,30.6
2019-04-16T18:05:40.978Z,31
2019-04-16T18:08:05.693Z,30.8
2019-04-16T18:09:18.050Z,31.3
2019-04-16T18:12:55.118Z,31.7
2019-04-16T18:14:07.476Z,33
2019-04-16T18:15:19.827Z,32.6
2019-04-16T18:17:44.546Z,33.2
2019-04-16T18:18:56.894Z,32.4
2019-04-16T18:20:09.252Z,33.5
2019-04-16T18:22:33.973Z,32.5
2019-04-16T18:23:46.032Z,33.2
2019-04-16T18:24:58.674Z,32.5
2019-04-16T18:27:23.395Z,32.6
2019-04-16T18:28:35.752Z,33.2
2019-04-16T18:29:48.107Z,32.8
2019-04-16T18:31:00.456Z,32.3
2019-04-16T18:32:12.832Z,32.1
2019-04-16T18:33:25.169Z,33.3
2019-04-16T18:34:37.527Z,32.4
2019-04-16T18:35:49.878Z,32.7
2019-04-16T18:37:02.241Z,31.7
2019-04-16T18:38:14.596Z,32.3
2019-04-16T18:39:26.952Z,33.9
2019-04-16T18:41:51.715Z,32.3
2019-04-16T18:43:04.022Z,32.8
2019-04-16T18:44:16.373Z,32.5
2019-04-16T18:46:41.085Z,32.6
2019-04-16T18:47:53.453Z,33.2
2019-04-16T18:49:05.801Z,32.6
2019-04-16T18:52:42.869Z,32.5
2019-04-16T18:53:55.226Z,31.8
2019-04-16T18:56:19.927Z,32.5
2019-04-16T18:57:32.289Z,32.3
2019-04-16T18:58:44.649Z,33.1
2019-04-16T19:01:09.367Z,32.9
2019-04-16T19:02:21.713Z,33.2
2019-04-16T19:03:34.066Z,32.7
2019-04-16T19:05:58.774Z,33.3
2019-04-16T19:07:11.133Z,33.7
2019-04-16T19:08:23.049Z,32.7
2019-04-16T19:10:48.201Z,32.5
2019-04-16T19:12:00.557Z,32.2
2019-04-16T19:13:12.091Z,32.1
2019-04-16T19:14:25.267Z,31.9
2019-04-16T19:15:37.629Z,33.1
2019-04-16T19:16:49.987Z,33
2019-04-16T19:18:02.335Z,32.7
2019-04-16T19:19:14.698Z,33
2019-04-16T19:20:27.055Z,31.8
2019-04-16T19:21:39.407Z,32.4
2019-04-16T19:25:16.481Z,33.2
2019-04-16T19:26:28.856Z,34
2019-04-16T19:27:41.195Z,32.5
2019-04-16T19:30:05.903Z,34.1
2019-04-16T19:31:18.250Z,34.2
2019-04-16T19:32:30.061Z,33.3
2019-04-16T19:33:42.096Z,32.7
2019-04-16T19:34:55.328Z,32.3
2019-04-16T19:36:07.000Z,32
2019-04-16T19:37:20.037Z,33.1
2019-04-16T19:39:44.742Z,32.7
2019-04-16T19:40:57.010Z,32.4
2019-04-16T19:42:09.466Z,32.3
2019-04-16T19:43:21.812Z,33.1
2019-04-16T19:44:34.175Z,33.3
2019-04-16T19:45:46.526Z,32.9
2019-04-16T19:46:58.890Z,33.1
2019-04-16T19:48:11.234Z,34.3
2019-04-16T19:49:23.593Z,33.9
2019-04-16T19:50:35.953Z,34
2019-04-16T19:51:48.319Z,33.6
2019-04-16T19:54:13.015Z,33.8
2019-04-16T19:55:25.379Z,32.4
2019-04-16T19:56:37.766Z,33.2
2019-04-16T19:59:02.438Z,32.5
2019-04-16T20:00:14.812Z,33.2
2019-04-16T20:01:27.154Z,32.7
2019-04-16T20:03:51.861Z,32.9
2019-04-16T20:05:04.216Z,32.6
2019-04-16T20:06:16.575Z,33.5
2019-04-16T20:08:41.285Z,33.3
2019-04-16T20:09:53.647Z,34.5
2019-04-16T20:12:18.342Z,34.3
2019-04-16T20:13:30.701Z,33.8
2019-04-16T20:14:43.053Z,32.9
2019-04-16T20:15:55.404Z,33
2019-04-16T20:17:07.770Z,32.9
2019-04-16T20:18:20.118Z,32.9
2019-04-16T20:19:32.469Z,33.3
2019-04-16T20:20:44.828Z,33
2019-04-16T20:23:09.053Z,34.4
2019-04-16T20:24:21.911Z,35.3
2019-04-16T20:25:34.244Z,35.8
2019-04-16T20:26:46.060Z,35.9
2019-04-16T20:27:58.094Z,35.3
2019-04-16T20:29:11.300Z,34.9
2019-04-16T20:30:23.659Z,35.2
2019-04-16T20:31:36.001Z,35.8
2019-04-16T20:32:48.363Z,36.3
2019-04-16T20:34:00.718Z,35.7
2019-04-16T20:36:25.423Z,36.5
2019-04-16T20:37:37.779Z,36.4
2019-04-16T20:38:50.141Z,36.7
2019-04-16T20:40:02.484Z,34.9
2019-04-16T20:41:14.845Z,34
2019-04-16T20:42:27.196Z,34.9
2019-04-16T20:43:39.551Z,34
2019-04-16T20:44:51.913Z,35.4